Lambton Shores, Canada
Current Conditions -  °F | °C
As of 12:04 PM on Thursday 23 Oct 2014 (Local Time) from CYZR Reporting Station
Scattered Clouds Scattered Clouds  
Wind Chill: 50°   Ceiling: Unl
Heat Index: 50°   Visibility: 9mi
Dew Point: 45°   Wind: 9mph
Humidity: 82%   Direction: 340°NNW
Pressure: 30.23"   Gusts: NA
Location:  43.24°N, 81.87°W
Report Text: CYZR 231604Z AUTO 34008KT 9SM SCT014 10/07 A3023 RMK SLP239
Loading
Personal Weather Stations






























Interactive Weather Map
Tropical Storm Tracking
New forecast layout! Learn more

10-Day Weather Forecast

Advertisements
Track Severe Weather on mobile